sensor_id;sensor_type;location;lat;lon;timestamp;temperature;humidity
7648;DHT22;3866;48.020;11.720;2023-04-25T00:02:23;6.60;99.90
7648;DHT22;3866;48.020;11.720;2023-04-25T00:04:51;6.60;99.90
7648;DHT22;3866;48.020;11.720;2023-04-25T00:07:18;6.60;99.90
7648;DHT22;3866;48.020;11.720;2023-04-25T00:09:45;6.70;99.90
7648;DHT22;3866;48.020;11.720;2023-04-25T00:12:12;6.70;99.90
7648;DHT22;3866;48.020;11.720;2023-04-25T00:14:39;6.70;99.90
7648;DHT22;3866;48.020;11.720;2023-04-25T00:17:06;6.70;99.90
7648;DHT22;3866;48.020;11.720;2023-04-25T00:19:32;6.80;99.90
7648;DHT22;3866;48.020;11.720;2023-04-25T00:22:01;6.80;99.90
7648;DHT22;3866;48.020;11.720;2023-04-25T00:24:28;6.80;99.90
7648;DHT22;3866;48.020;11.720;2023-04-25T00:26:55;6.80;99.90
7648;DHT22;3866;48.020;11.720;2023-04-25T00:29:22;6.90;99.90
7648;DHT22;3866;48.020;11.720;2023-04-25T00:31:49;6.80;99.90
7648;DHT22;3866;48.020;11.720;2023-04-25T00:34:16;6.90;99.90
7648;DHT22;3866;48.020;11.720;2023-04-25T00:36:42;6.90;99.90
7648;DHT22;3866;48.020;11.720;2023-04-25T00:39:11;7.00;99.90
7648;DHT22;3866;48.020;11.720;2023-04-25T00:41:38;7.00;99.90
7648;DHT22;3866;48.020;11.720;2023-04-25T00:44:08;7.00;99.90
7648;DHT22;3866;48.020;11.720;2023-04-25T00:46:36;7.00;99.90
7648;DHT22;3866;48.020;11.720;2023-04-25T00:49:03;7.00;99.90
7648;DHT22;3866;48.020;11.720;2023-04-25T00:51:31;7.00;99.90
7648;DHT22;3866;48.020;11.720;2023-04-25T00:53:59;7.00;99.90
7648;DHT22;3866;48.020;11.720;2023-04-25T00:56:28;7.00;99.90
7648;DHT22;3866;48.020;11.720;2023-04-25T00:58:55;7.00;99.90
7648;DHT22;3866;48.020;11.720;2023-04-25T01:01:22;7.00;99.90
7648;DHT22;3866;48.020;11.720;2023-04-25T01:03:50;7.10;99.90
7648;DHT22;3866;48.020;11.720;2023-04-25T01:06:17;7.10;99.90
7648;DHT22;3866;48.020;11.720;2023-04-25T01:08:43;7.10;99.90
7648;DHT22;3866;48.020;11.720;2023-04-25T01:11:10;7.10;99.90
7648;DHT22;3866;48.020;11.720;2023-04-25T01:13:38;7.10;99.90
7648;DHT22;3866;48.020;11.720;2023-04-25T01:16:06;7.00;99.90
7648;DHT22;3866;48.020;11.720;2023-04-25T01:18:33;7.10;99.90
7648;DHT22;3866;48.020;11.720;2023-04-25T01:21:07;6.90;99.90
7648;DHT22;3866;48.020;11.720;2023-04-25T01:23:35;6.90;99.90
7648;DHT22;3866;48.020;11.720;2023-04-25T01:26:03;6.90;99.90
7648;DHT22;3866;48.020;11.720;2023-04-25T01:28:30;6.90;99.90
7648;DHT22;3866;48.020;11.720;2023-04-25T01:30:58;6.90;99.90
7648;DHT22;3866;48.020;11.720;2023-04-25T01:33:25;6.90;99.90
7648;DHT22;3866;48.020;11.720;2023-04-25T01:35:52;6.90;99.90
7648;DHT22;3866;48.020;11.720;2023-04-25T01:38:21;7.00;99.90
7648;DHT22;3866;48.020;11.720;2023-04-25T01:40:49;6.90;99.90
7648;DHT22;3866;48.020;11.720;2023-04-25T01:43:17;6.90;99.90
7648;DHT22;3866;48.020;11.720;2023-04-25T01:45:44;6.90;99.90
7648;DHT22;3866;48.020;11.720;2023-04-25T01:48:12;6.90;99.90
7648;DHT22;3866;48.020;11.720;2023-04-25T01:50:40;6.90;99.90
7648;DHT22;3866;48.020;11.720;2023-04-25T01:53:09;6.90;99.90
7648;DHT22;3866;48.020;11.720;2023-04-25T01:55:37;7.00;99.90
7648;DHT22;3866;48.020;11.720;2023-04-25T01:58:05;6.90;99.90
7648;DHT22;3866;48.020;11.720;2023-04-25T02:00:34;6.80;99.90
7648;DHT22;3866;48.020;11.720;2023-04-25T02:03:03;6.80;99.90
7648;DHT22;3866;48.020;11.720;2023-04-25T02:05:34;6.70;99.90
7648;DHT22;3866;48.020;11.720;2023-04-25T02:08:02;6.70;99.90
7648;DHT22;3866;48.020;11.720;2023-04-25T02:10:29;6.70;99.90
7648;DHT22;3866;48.020;11.720;2023-04-25T02:12:58;6.60;99.90
7648;DHT22;3866;48.020;11.720;2023-04-25T02:15:25;6.60;99.90
7648;DHT22;3866;48.020;11.720;2023-04-25T02:17:52;6.50;99.90
7648;DHT22;3866;48.020;11.720;2023-04-25T02:20:20;6.50;99.90
7648;DHT22;3866;48.020;11.720;2023-04-25T02:22:47;6.50;99.90
7648;DHT22;3866;48.020;11.720;2023-04-25T02:25:14;6.40;99.90
7648;DHT22;3866;48.020;11.720;2023-04-25T02:27:41;6.40;99.90
7648;DHT22;3866;48.020;11.720;2023-04-25T02:30:10;6.30;99.90
7648;DHT22;3866;48.020;11.720;2023-04-25T02:32:37;6.30;99.90
7648;DHT22;3866;48.020;11.720;2023-04-25T02:35:05;6.30;99.90
7648;DHT22;3866;48.020;11.720;2023-04-25T02:37:32;6.30;99.90
7648;DHT22;3866;48.020;11.720;2023-04-25T02:39:59;6.30;99.90
7648;DHT22;3866;48.020;11.720;2023-04-25T02:42:26;6.30;99.90
7648;DHT22;3866;48.020;11.720;2023-04-25T02:44:53;6.40;99.90
7648;DHT22;3866;48.020;11.720;2023-04-25T02:47:21;6.40;99.90
7648;DHT22;3866;48.020;11.720;2023-04-25T02:49:48;6.40;99.90
7648;DHT22;3866;48.020;11.720;2023-04-25T02:52:15;6.40;99.90
7648;DHT22;3866;48.020;11.720;2023-04-25T02:54:42;6.40;99.90
7648;DHT22;3866;48.020;11.720;2023-04-25T02:57:09;6.50;99.90
7648;DHT22;3866;48.020;11.720;2023-04-25T02:59:36;6.40;99.90
7648;DHT22;3866;48.020;11.720;2023-04-25T03:02:02;6.50;99.90
7648;DHT22;3866;48.020;11.720;2023-04-25T03:04:31;6.40;99.90
7648;DHT22;3866;48.020;11.720;2023-04-25T03:06:59;6.40;99.90
7648;DHT22;3866;48.020;11.720;2023-04-25T03:09:26;6.30;99.90
7648;DHT22;3866;48.020;11.720;2023-04-25T03:11:53;6.30;99.90
7648;DHT22;3866;48.020;11.720;2023-04-25T03:14:20;6.40;99.90
7648;DHT22;3866;48.020;11.720;2023-04-25T03:16:47;6.50;99.90
7648;DHT22;3866;48.020;11.720;2023-04-25T03:19:13;6.50;99.90
7648;DHT22;3866;48.020;11.720;2023-04-25T03:21:43;6.40;99.90
7648;DHT22;3866;48.020;11.720;2023-04-25T03:24:10;6.40;99.90
7648;DHT22;3866;48.020;11.720;2023-04-25T03:26:37;6.40;99.90
7648;DHT22;3866;48.020;11.720;2023-04-25T03:29:04;6.40;99.90
7648;DHT22;3866;48.020;11.720;2023-04-25T03:31:31;6.50;99.90
7648;DHT22;3866;48.020;11.720;2023-04-25T03:33:58;6.50;99.90
7648;DHT22;3866;48.020;11.720;2023-04-25T03:36:25;6.40;99.90
7648;DHT22;3866;48.020;11.720;2023-04-25T03:38:53;6.30;99.90
7648;DHT22;3866;48.020;11.720;2023-04-25T03:41:20;6.20;99.90
7648;DHT22;3866;48.020;11.720;2023-04-25T03:43:46;6.00;99.90
7648;DHT22;3866;48.020;11.720;2023-04-25T03:46:13;5.80;99.90
7648;DHT22;3866;48.020;11.720;2023-04-25T03:48:40;5.70;99.90
7648;DHT22;3866;48.020;11.720;2023-04-25T03:51:07;5.60;99.90
7648;DHT22;3866;48.020;11.720;2023-04-25T03:53:34;5.50;99.90
7648;DHT22;3866;48.020;11.720;2023-04-25T03:56:02;5.30;99.90
7648;DHT22;3866;48.020;11.720;2023-04-25T03:58:29;5.20;99.90
7648;DHT22;3866;48.020;11.720;2023-04-25T04:00:56;5.20;99.90
7648;DHT22;3866;48.020;11.720;2023-04-25T04:03:23;5.20;99.90
7648;DHT22;3866;48.020;11.720;2023-04-25T04:05:50;5.10;99.90
7648;DHT22;3866;48.020;11.720;2023-04-25T04:08:16;5.10;99.90
7648;DHT22;3866;48.020;11.720;2023-04-25T04:10:43;5.20;99.90
7648;DHT22;3866;48.020;11.720;2023-04-25T04:13:12;5.20;99.90
7648;DHT22;3866;48.020;11.720;2023-04-25T04:15:38;5.20;99.90
7648;DHT22;3866;48.020;11.720;2023-04-25T04:18:05;5.20;99.90
7648;DHT22;3866;48.020;11.720;2023-04-25T04:20:32;5.20;99.90
7648;DHT22;3866;48.020;11.720;2023-04-25T04:22:59;5.20;99.90
7648;DHT22;3866;48.020;11.720;2023-04-25T04:25:26;5.10;99.90
7648;DHT22;3866;48.020;11.720;2023-04-25T04:27:54;5.10;99.90
7648;DHT22;3866;48.020;11.720;2023-04-25T04:30:23;5.20;99.90
7648;DHT22;3866;48.020;11.720;2023-04-25T04:32:50;5.30;99.90
7648;DHT22;3866;48.020;11.720;2023-04-25T04:35:17;5.20;99.90
7648;DHT22;3866;48.020;11.720;2023-04-25T04:37:44;5.20;99.90
7648;DHT22;3866;48.020;11.720;2023-04-25T04:40:12;5.30;99.90
7648;DHT22;3866;48.020;11.720;2023-04-25T04:42:41;5.40;99.90
7648;DHT22;3866;48.020;11.720;2023-04-25T04:45:08;5.30;99.90
7648;DHT22;3866;48.020;11.720;2023-04-25T04:47:37;5.30;99.90
7648;DHT22;3866;48.020;11.720;2023-04-25T04:50:05;5.40;99.90
7648;DHT22;3866;48.020;11.720;2023-04-25T04:52:34;5.50;99.90
7648;DHT22;3866;48.020;11.720;2023-04-25T04:55:01;5.40;99.90
7648;DHT22;3866;48.020;11.720;2023-04-25T04:57:27;5.30;99.90
7648;DHT22;3866;48.020;11.720;2023-04-25T04:59:54;5.30;99.90
7648;DHT22;3866;48.020;11.720;2023-04-25T05:02:21;5.20;99.90
7648;DHT22;3866;48.020;11.720;2023-04-25T05:04:50;5.20;99.90
7648;DHT22;3866;48.020;11.720;2023-04-25T05:07:17;5.30;99.90
7648;DHT22;3866;48.020;11.720;2023-04-25T05:09:44;5.40;99.90
7648;DHT22;3866;48.020;11.720;2023-04-25T05:12:11;5.40;99.90
7648;DHT22;3866;48.020;11.720;2023-04-25T05:14:37;5.40;99.90
7648;DHT22;3866;48.020;11.720;2023-04-25T05:17:04;5.30;99.90
7648;DHT22;3866;48.020;11.720;2023-04-25T05:19:34;5.30;99.90
7648;DHT22;3866;48.020;11.720;2023-04-25T05:22:02;5.40;99.90
7648;DHT22;3866;48.020;11.720;2023-04-25T05:24:29;5.50;99.90
7648;DHT22;3866;48.020;11.720;2023-04-25T05:26:56;5.70;99.90
7648;DHT22;3866;48.020;11.720;2023-04-25T05:29:23;5.80;99.90
7648;DHT22;3866;48.020;11.720;2023-04-25T05:31:50;5.90;99.90
7648;DHT22;3866;48.020;11.720;2023-04-25T05:34:17;6.10;99.90
7648;DHT22;3866;48.020;11.720;2023-04-25T05:36:43;6.20;99.90
7648;DHT22;3866;48.020;11.720;2023-04-25T05:39:15;6.40;99.90
7648;DHT22;3866;48.020;11.720;2023-04-25T05:41:42;6.50;99.90
7648;DHT22;3866;48.020;11.720;2023-04-25T05:44:09;6.60;99.90
7648;DHT22;3866;48.020;11.720;2023-04-25T05:46:36;6.80;99.90
7648;DHT22;3866;48.020;11.720;2023-04-25T05:49:03;6.90;99.90
7648;DHT22;3866;48.020;11.720;2023-04-25T05:51:29;6.80;99.90
7648;DHT22;3866;48.020;11.720;2023-04-25T05:53:57;6.80;99.90
7648;DHT22;3866;48.020;11.720;2023-04-25T05:56:25;6.60;99.90
7648;DHT22;3866;48.020;11.720;2023-04-25T05:58:52;6.60;99.90
7648;DHT22;3866;48.020;11.720;2023-04-25T06:01:19;6.50;99.90
7648;DHT22;3866;48.020;11.720;2023-04-25T06:03:46;6.50;99.90
7648;DHT22;3866;48.020;11.720;2023-04-25T06:06:13;6.50;99.90
7648;DHT22;3866;48.020;11.720;2023-04-25T06:08:40;6.50;99.90
7648;DHT22;3866;48.020;11.720;2023-04-25T06:11:07;6.40;99.90
7648;DHT22;3866;48.020;11.720;2023-04-25T06:13:35;6.40;99.90
7648;DHT22;3866;48.020;11.720;2023-04-25T06:16:02;6.60;99.90
7648;DHT22;3866;48.020;11.720;2023-04-25T06:18:29;6.60;99.90
7648;DHT22;3866;48.020;11.720;2023-04-25T06:20:56;6.80;99.90
7648;DHT22;3866;48.020;11.720;2023-04-25T06:23:23;7.00;99.90
7648;DHT22;3866;48.020;11.720;2023-04-25T06:25:49;7.50;99.90
7648;DHT22;3866;48.020;11.720;2023-04-25T06:28:16;8.10;99.90
7648;DHT22;3866;48.020;11.720;2023-04-25T06:30:44;8.00;99.90
7648;DHT22;3866;48.020;11.720;2023-04-25T06:33:11;7.90;99.90
7648;DHT22;3866;48.020;11.720;2023-04-25T06:35:38;7.90;99.90
7648;DHT22;3866;48.020;11.720;2023-04-25T06:38:05;8.00;99.90
7648;DHT22;3866;48.020;11.720;2023-04-25T06:40:32;7.80;99.90
7648;DHT22;3866;48.020;11.720;2023-04-25T06:42:59;7.90;99.90
7648;DHT22;3866;48.020;11.720;2023-04-25T06:45:26;8.00;99.90
7648;DHT22;3866;48.020;11.720;2023-04-25T06:47:54;8.10;99.90
7648;DHT22;3866;48.020;11.720;2023-04-25T06:50:21;9.20;99.90
7648;DHT22;3866;48.020;11.720;2023-04-25T06:52:48;9.60;99.90
7648;DHT22;3866;48.020;11.720;2023-04-25T06:55:15;9.50;99.90
7648;DHT22;3866;48.020;11.720;2023-04-25T06:57:42;9.10;99.90
7648;DHT22;3866;48.020;11.720;2023-04-25T07:00:09;9.30;99.90
7648;DHT22;3866;48.020;11.720;2023-04-25T07:02:36;8.90;99.90
7648;DHT22;3866;48.020;11.720;2023-04-25T07:05:05;8.60;99.90
7648;DHT22;3866;48.020;11.720;2023-04-25T07:07:32;8.20;99.90
7648;DHT22;3866;48.020;11.720;2023-04-25T07:09:59;8.10;99.90
7648;DHT22;3866;48.020;11.720;2023-04-25T07:12:26;8.10;99.90
7648;DHT22;3866;48.020;11.720;2023-04-25T07:14:53;7.90;99.90
7648;DHT22;3866;48.020;11.720;2023-04-25T07:17:19;7.70;99.90
7648;DHT22;3866;48.020;11.720;2023-04-25T07:19:47;7.90;99.90
7648;DHT22;3866;48.020;11.720;2023-04-25T07:22:15;8.00;99.90
7648;DHT22;3866;48.020;11.720;2023-04-25T07:24:42;8.10;99.90
7648;DHT22;3866;48.020;11.720;2023-04-25T07:27:12;8.10;99.90
7648;DHT22;3866;48.020;11.720;2023-04-25T07:29:39;8.20;99.90
7648;DHT22;3866;48.020;11.720;2023-04-25T07:32:07;8.10;99.90
7648;DHT22;3866;48.020;11.720;2023-04-25T07:34:35;8.20;99.90
7648;DHT22;3866;48.020;11.720;2023-04-25T07:37:04;8.40;99.90
7648;DHT22;3866;48.020;11.720;2023-04-25T07:39:33;8.30;99.90
7648;DHT22;3866;48.020;11.720;2023-04-25T07:42:01;8.50;99.90
7648;DHT22;3866;48.020;11.720;2023-04-25T07:44:28;8.90;99.90
7648;DHT22;3866;48.020;11.720;2023-04-25T07:46:55;9.50;99.90
7648;DHT22;3866;48.020;11.720;2023-04-25T07:49:23;9.90;99.90
7648;DHT22;3866;48.020;11.720;2023-04-25T07:51:49;11.10;99.90
7648;DHT22;3866;48.020;11.720;2023-04-25T07:54:17;12.50;99.90
7648;DHT22;3866;48.020;11.720;2023-04-25T07:56:45;13.00;99.90
7648;DHT22;3866;48.020;11.720;2023-04-25T07:59:12;14.20;99.90
7648;DHT22;3866;48.020;11.720;2023-04-25T08:01:42;15.30;99.90
7648;DHT22;3866;48.020;11.720;2023-04-25T08:04:09;15.80;99.90
7648;DHT22;3866;48.020;11.720;2023-04-25T08:06:36;14.70;99.90
7648;DHT22;3866;48.020;11.720;2023-04-25T08:09:03;14.40;99.90
7648;DHT22;3866;48.020;11.720;2023-04-25T08:11:29;15.20;99.90
7648;DHT22;3866;48.020;11.720;2023-04-25T08:13:58;14.60;99.90
7648;DHT22;3866;48.020;11.720;2023-04-25T08:16:24;14.90;99.90
7648;DHT22;3866;48.020;11.720;2023-04-25T08:18:51;15.10;99.90
7648;DHT22;3866;48.020;11.720;2023-04-25T08:21:20;15.20;99.90
7648;DHT22;3866;48.020;11.720;2023-04-25T08:23:47;14.90;99.90
7648;DHT22;3866;48.020;11.720;2023-04-25T08:26:14;14.50;99.90
7648;DHT22;3866;48.020;11.720;2023-04-25T08:28:41;13.90;99.90
7648;DHT22;3866;48.020;11.720;2023-04-25T08:31:09;13.40;99.90
7648;DHT22;3866;48.020;11.720;2023-04-25T08:33:36;14.00;99.90
7648;DHT22;3866;48.020;11.720;2023-04-25T08:36:03;14.60;99.90
7648;DHT22;3866;48.020;11.720;2023-04-25T08:38:30;14.30;99.90
7648;DHT22;3866;48.020;11.720;2023-04-25T08:40:57;15.50;99.90
7648;DHT22;3866;48.020;11.720;2023-04-25T08:43:26;15.70;99.90
7648;DHT22;3866;48.020;11.720;2023-04-25T08:45:58;16.80;99.90
7648;DHT22;3866;48.020;11.720;2023-04-25T08:48:27;16.20;99.90
7648;DHT22;3866;48.020;11.720;2023-04-25T08:50:56;13.90;99.90
7648;DHT22;3866;48.020;11.720;2023-04-25T08:53:26;13.10;99.90
7648;DHT22;3866;48.020;11.720;2023-04-25T08:55:54;13.00;99.90
7648;DHT22;3866;48.020;11.720;2023-04-25T08:58:22;12.60;99.90
7648;DHT22;3866;48.020;11.720;2023-04-25T09:00:50;12.30;99.90
7648;DHT22;3866;48.020;11.720;2023-04-25T09:03:18;11.90;99.90
7648;DHT22;3866;48.020;11.720;2023-04-25T09:05:46;10.90;99.90
7648;DHT22;3866;48.020;11.720;2023-04-25T09:08:13;10.00;99.90
7648;DHT22;3866;48.020;11.720;2023-04-25T09:10:40;9.60;99.90
7648;DHT22;3866;48.020;11.720;2023-04-25T09:13:08;9.40;99.90
7648;DHT22;3866;48.020;11.720;2023-04-25T09:15:47;10.00;99.90
7648;DHT22;3866;48.020;11.720;2023-04-25T09:18:22;10.50;99.90
7648;DHT22;3866;48.020;11.720;2023-04-25T09:20:52;10.70;99.90
7648;DHT22;3866;48.020;11.720;2023-04-25T09:23:19;11.10;99.90
7648;DHT22;3866;48.020;11.720;2023-04-25T09:25:47;11.20;99.90
7648;DHT22;3866;48.020;11.720;2023-04-25T09:28:15;10.60;99.90
7648;DHT22;3866;48.020;11.720;2023-04-25T09:30:42;10.90;99.90
7648;DHT22;3866;48.020;11.720;2023-04-25T09:33:10;10.30;99.90
7648;DHT22;3866;48.020;11.720;2023-04-25T09:35:38;10.20;99.90
7648;DHT22;3866;48.020;11.720;2023-04-25T09:38:11;10.10;99.90
7648;DHT22;3866;48.020;11.720;2023-04-25T09:40:42;10.80;99.90
7648;DHT22;3866;48.020;11.720;2023-04-25T09:43:10;11.30;99.90
7648;DHT22;3866;48.020;11.720;2023-04-25T09:45:41;11.20;99.90
7648;DHT22;3866;48.020;11.720;2023-04-25T09:48:11;10.90;99.90
7648;DHT22;3866;48.020;11.720;2023-04-25T09:50:38;10.90;99.90
7648;DHT22;3866;48.020;11.720;2023-04-25T09:53:06;10.70;99.90
7648;DHT22;3866;48.020;11.720;2023-04-25T09:55:35;10.10;99.90
7648;DHT22;3866;48.020;11.720;2023-04-25T09:58:05;9.30;99.90
7648;DHT22;3866;48.020;11.720;2023-04-25T10:00:33;8.60;99.90
7648;DHT22;3866;48.020;11.720;2023-04-25T10:03:01;8.40;99.90
7648;DHT22;3866;48.020;11.720;2023-04-25T10:05:30;8.50;99.90
7648;DHT22;3866;48.020;11.720;2023-04-25T10:07:59;8.60;99.90
7648;DHT22;3866;48.020;11.720;2023-04-25T10:10:28;8.80;99.90
7648;DHT22;3866;48.020;11.720;2023-04-25T10:13:00;9.10;99.90
7648;DHT22;3866;48.020;11.720;2023-04-25T10:15:27;9.90;99.90
7648;DHT22;3866;48.020;11.720;2023-04-25T10:17:55;10.40;99.90
7648;DHT22;3866;48.020;11.720;2023-04-25T10:20:23;10.60;99.90
7648;DHT22;3866;48.020;11.720;2023-04-25T10:22:51;10.90;99.90
7648;DHT22;3866;48.020;11.720;2023-04-25T10:25:22;11.60;99.90
7648;DHT22;3866;48.020;11.720;2023-04-25T10:27:50;11.70;99.90
7648;DHT22;3866;48.020;11.720;2023-04-25T10:30:19;11.70;99.90
7648;DHT22;3866;48.020;11.720;2023-04-25T10:32:47;11.50;99.90
7648;DHT22;3866;48.020;11.720;2023-04-25T10:35:16;11.10;99.90
7648;DHT22;3866;48.020;11.720;2023-04-25T10:38:00;11.10;99.90
7648;DHT22;3866;48.020;11.720;2023-04-25T10:40:29;11.30;99.90
7648;DHT22;3866;48.020;11.720;2023-04-25T10:46:00;11.50;99.90
7648;DHT22;3866;48.020;11.720;2023-04-25T10:48:28;11.40;99.90
7648;DHT22;3866;48.020;11.720;2023-04-25T10:51:07;11.60;99.90
7648;DHT22;3866;48.020;11.720;2023-04-25T10:53:34;12.20;99.90
7648;DHT22;3866;48.020;11.720;2023-04-25T10:56:09;12.00;99.90
7648;DHT22;3866;48.020;11.720;2023-04-25T10:58:42;11.90;99.90
7648;DHT22;3866;48.020;11.720;2023-04-25T11:01:11;12.00;99.90
7648;DHT22;3866;48.020;11.720;2023-04-25T11:03:40;12.30;99.90
7648;DHT22;3866;48.020;11.720;2023-04-25T11:06:15;12.60;99.90
7648;DHT22;3866;48.020;11.720;2023-04-25T11:08:50;12.60;99.90
7648;DHT22;3866;48.020;11.720;2023-04-25T11:11:18;12.30;99.90
7648;DHT22;3866;48.020;11.720;2023-04-25T11:13:48;12.00;99.90
7648;DHT22;3866;48.020;11.720;2023-04-25T11:16:17;11.50;99.90
7648;DHT22;3866;48.020;11.720;2023-04-25T11:18:44;11.10;99.90
7648;DHT22;3866;48.020;11.720;2023-04-25T11:21:11;11.10;99.90
7648;DHT22;3866;48.020;11.720;2023-04-25T11:23:38;10.60;99.90
7648;DHT22;3866;48.020;11.720;2023-04-25T11:26:05;10.40;99.90
7648;DHT22;3866;48.020;11.720;2023-04-25T11:28:32;9.60;99.90
7648;DHT22;3866;48.020;11.720;2023-04-25T11:30:59;9.20;99.90
7648;DHT22;3866;48.020;11.720;2023-04-25T11:33:27;8.90;99.90
7648;DHT22;3866;48.020;11.720;2023-04-25T11:35:55;8.70;99.90
7648;DHT22;3866;48.020;11.720;2023-04-25T11:38:22;8.60;99.90
7648;DHT22;3866;48.020;11.720;2023-04-25T11:40:51;8.60;99.90
7648;DHT22;3866;48.020;11.720;2023-04-25T11:43:20;8.20;99.90
7648;DHT22;3866;48.020;11.720;2023-04-25T11:45:48;7.60;99.90
7648;DHT22;3866;48.020;11.720;2023-04-25T11:48:16;7.00;99.90
7648;DHT22;3866;48.020;11.720;2023-04-25T11:50:44;6.90;99.90
7648;DHT22;3866;48.020;11.720;2023-04-25T11:53:11;6.60;99.90
7648;DHT22;3866;48.020;11.720;2023-04-25T11:55:38;6.40;99.90
7648;DHT22;3866;48.020;11.720;2023-04-25T11:58:05;6.30;99.90
7648;DHT22;3866;48.020;11.720;2023-04-25T12:00:34;6.20;99.90
7648;DHT22;3866;48.020;11.720;2023-04-25T12:03:01;6.10;99.90
7648;DHT22;3866;48.020;11.720;2023-04-25T12:05:30;6.10;99.90
7648;DHT22;3866;48.020;11.720;2023-04-25T12:08:09;6.10;99.90
7648;DHT22;3866;48.020;11.720;2023-04-25T12:10:38;6.10;99.90
7648;DHT22;3866;48.020;11.720;2023-04-25T12:13:19;6.20;99.90
7648;DHT22;3866;48.020;11.720;2023-04-25T12:15:46;6.10;99.90
7648;DHT22;3866;48.020;11.720;2023-04-25T12:18:13;6.20;99.90
7648;DHT22;3866;48.020;11.720;2023-04-25T12:20:41;6.50;99.90
7648;DHT22;3866;48.020;11.720;2023-04-25T12:23:09;6.50;99.90
7648;DHT22;3866;48.020;11.720;2023-04-25T12:25:39;6.30;99.90
7648;DHT22;3866;48.020;11.720;2023-04-25T12:28:11;6.40;99.90
7648;DHT22;3866;48.020;11.720;2023-04-25T12:30:53;6.50;99.90
7648;DHT22;3866;48.020;11.720;2023-04-25T12:33:20;7.00;99.90
7648;DHT22;3866;48.020;11.720;2023-04-25T12:35:47;7.10;99.90
7648;DHT22;3866;48.020;11.720;2023-04-25T12:38:22;6.90;99.90
7648;DHT22;3866;48.020;11.720;2023-04-25T12:40:49;7.00;99.90
7648;DHT22;3866;48.020;11.720;2023-04-25T12:43:16;7.30;99.90
7648;DHT22;3866;48.020;11.720;2023-04-25T12:45:43;7.30;99.90
7648;DHT22;3866;48.020;11.720;2023-04-25T12:48:10;7.40;99.90
7648;DHT22;3866;48.020;11.720;2023-04-25T12:50:37;7.50;99.90
7648;DHT22;3866;48.020;11.720;2023-04-25T12:53:04;7.90;99.90
7648;DHT22;3866;48.020;11.720;2023-04-25T12:55:32;8.20;99.90
7648;DHT22;3866;48.020;11.720;2023-04-25T12:57:59;8.60;99.90
7648;DHT22;3866;48.020;11.720;2023-04-25T13:00:26;9.00;99.90
7648;DHT22;3866;48.020;11.720;2023-04-25T13:02:53;8.80;99.90
7648;DHT22;3866;48.020;11.720;2023-04-25T13:05:20;8.80;99.90
7648;DHT22;3866;48.020;11.720;2023-04-25T13:07:46;9.00;99.90
7648;DHT22;3866;48.020;11.720;2023-04-25T13:10:13;9.10;99.90
7648;DHT22;3866;48.020;11.720;2023-04-25T13:12:42;8.80;99.90
7648;DHT22;3866;48.020;11.720;2023-04-25T13:15:10;8.80;99.90
7648;DHT22;3866;48.020;11.720;2023-04-25T13:17:37;8.50;99.90
7648;DHT22;3866;48.020;11.720;2023-04-25T13:20:05;8.20;99.90
7648;DHT22;3866;48.020;11.720;2023-04-25T13:22:34;8.20;99.90
7648;DHT22;3866;48.020;11.720;2023-04-25T13:25:02;8.20;99.90
7648;DHT22;3866;48.020;11.720;2023-04-25T13:27:29;8.30;99.90
7648;DHT22;3866;48.020;11.720;2023-04-25T13:29:59;8.50;99.90
7648;DHT22;3866;48.020;11.720;2023-04-25T13:32:26;8.60;99.90
7648;DHT22;3866;48.020;11.720;2023-04-25T13:34:53;8.50;99.90
7648;DHT22;3866;48.020;11.720;2023-04-25T13:37:21;8.60;99.90
7648;DHT22;3866;48.020;11.720;2023-04-25T13:39:50;8.60;99.90
7648;DHT22;3866;48.020;11.720;2023-04-25T13:42:17;8.30;99.90
7648;DHT22;3866;48.020;11.720;2023-04-25T13:44:43;8.50;99.90
7648;DHT22;3866;48.020;11.720;2023-04-25T13:47:12;8.70;99.90
7648;DHT22;3866;48.020;11.720;2023-04-25T13:49:38;8.70;99.90
7648;DHT22;3866;48.020;11.720;2023-04-25T13:52:05;8.70;99.90
7648;DHT22;3866;48.020;11.720;2023-04-25T13:54:33;8.40;99.90
7648;DHT22;3866;48.020;11.720;2023-04-25T13:57:00;8.30;99.90
7648;DHT22;3866;48.020;11.720;2023-04-25T13:59:27;8.20;99.90
7648;DHT22;3866;48.020;11.720;2023-04-25T14:01:54;8.10;99.90
7648;DHT22;3866;48.020;11.720;2023-04-25T14:04:23;8.00;99.90
7648;DHT22;3866;48.020;11.720;2023-04-25T14:06:50;8.00;99.90
7648;DHT22;3866;48.020;11.720;2023-04-25T14:09:18;8.20;99.90
7648;DHT22;3866;48.020;11.720;2023-04-25T14:11:46;8.20;99.90
7648;DHT22;3866;48.020;11.720;2023-04-25T14:14:13;7.80;99.90
7648;DHT22;3866;48.020;11.720;2023-04-25T14:16:41;7.50;99.90
7648;DHT22;3866;48.020;11.720;2023-04-25T14:19:08;7.50;99.90
7648;DHT22;3866;48.020;11.720;2023-04-25T14:21:36;7.30;99.90
7648;DHT22;3866;48.020;11.720;2023-04-25T14:24:04;7.10;99.90
7648;DHT22;3866;48.020;11.720;2023-04-25T14:26:33;7.20;99.90
7648;DHT22;3866;48.020;11.720;2023-04-25T14:29:00;7.10;99.90
7648;DHT22;3866;48.020;11.720;2023-04-25T14:31:26;7.20;99.90
7648;DHT22;3866;48.020;11.720;2023-04-25T14:33:53;7.00;99.90
7648;DHT22;3866;48.020;11.720;2023-04-25T14:36:20;7.10;99.90
7648;DHT22;3866;48.020;11.720;2023-04-25T14:38:49;7.20;99.90
7648;DHT22;3866;48.020;11.720;2023-04-25T14:41:16;7.10;99.90
7648;DHT22;3866;48.020;11.720;2023-04-25T14:43:43;7.30;99.90
7648;DHT22;3866;48.020;11.720;2023-04-25T14:46:10;7.40;99.90
7648;DHT22;3866;48.020;11.720;2023-04-25T14:48:37;7.30;99.90
7648;DHT22;3866;48.020;11.720;2023-04-25T14:51:04;7.40;99.90
7648;DHT22;3866;48.020;11.720;2023-04-25T14:53:32;7.30;99.90
7648;DHT22;3866;48.020;11.720;2023-04-25T14:56:00;7.50;99.90
7648;DHT22;3866;48.020;11.720;2023-04-25T14:58:27;7.70;99.90
7648;DHT22;3866;48.020;11.720;2023-04-25T15:00:54;7.90;99.90
7648;DHT22;3866;48.020;11.720;2023-04-25T15:03:20;7.90;99.90
7648;DHT22;3866;48.020;11.720;2023-04-25T15:05:48;8.00;99.90
7648;DHT22;3866;48.020;11.720;2023-04-25T15:08:15;8.20;99.90
7648;DHT22;3866;48.020;11.720;2023-04-25T15:10:42;8.20;99.90
7648;DHT22;3866;48.020;11.720;2023-04-25T15:13:10;8.20;99.90
7648;DHT22;3866;48.020;11.720;2023-04-25T15:15:37;8.40;99.90
7648;DHT22;3866;48.020;11.720;2023-04-25T15:18:05;8.40;99.90
7648;DHT22;3866;48.020;11.720;2023-04-25T15:20:31;8.50;99.90
7648;DHT22;3866;48.020;11.720;2023-04-25T15:22:58;8.50;99.90
7648;DHT22;3866;48.020;11.720;2023-04-25T15:25:25;8.40;99.90
7648;DHT22;3866;48.020;11.720;2023-04-25T15:27:53;8.40;99.90
7648;DHT22;3866;48.020;11.720;2023-04-25T15:30:22;8.30;99.90
7648;DHT22;3866;48.020;11.720;2023-04-25T15:32:50;8.20;99.90
7648;DHT22;3866;48.020;11.720;2023-04-25T15:35:17;8.10;99.90
7648;DHT22;3866;48.020;11.720;2023-04-25T15:37:44;8.20;99.90
7648;DHT22;3866;48.020;11.720;2023-04-25T15:40:14;8.10;99.90
7648;DHT22;3866;48.020;11.720;2023-04-25T15:42:42;7.90;99.90
7648;DHT22;3866;48.020;11.720;2023-04-25T15:45:13;7.70;99.90
7648;DHT22;3866;48.020;11.720;2023-04-25T15:47:42;7.80;99.90
7648;DHT22;3866;48.020;11.720;2023-04-25T15:50:09;7.70;99.90
7648;DHT22;3866;48.020;11.720;2023-04-25T15:52:37;7.70;99.90
7648;DHT22;3866;48.020;11.720;2023-04-25T15:55:05;7.70;99.90
7648;DHT22;3866;48.020;11.720;2023-04-25T15:57:34;7.80;99.90
7648;DHT22;3866;48.020;11.720;2023-04-25T16:00:02;7.70;99.90
7648;DHT22;3866;48.020;11.720;2023-04-25T16:02:36;7.60;99.90
7648;DHT22;3866;48.020;11.720;2023-04-25T16:05:05;7.60;99.90
7648;DHT22;3866;48.020;11.720;2023-04-25T16:07:33;7.60;99.90